createdAt,value
2023-02-23T00:01:41.862Z,8.20
2023-02-23T00:04:10.350Z,8.20
2023-02-23T00:06:39.254Z,8.20
2023-02-23T00:09:23.428Z,8.20
2023-02-23T00:11:51.606Z,8.20
2023-02-23T00:14:19.589Z,8.20
2023-02-23T00:16:47.691Z,8.30
2023-02-23T00:19:15.665Z,8.30
2023-02-23T00:21:43.634Z,8.30
2023-02-23T00:24:18.635Z,8.20
2023-02-23T00:26:47.858Z,8.20
2023-02-23T00:29:19.168Z,8.20
2023-02-23T00:31:47.702Z,8.30
2023-02-23T00:34:20.953Z,8.30
2023-02-23T00:36:52.140Z,8.30
2023-02-23T00:39:23.191Z,8.40
2023-02-23T00:41:52.383Z,8.40
2023-02-23T00:44:21.303Z,8.30
2023-02-23T00:46:51.354Z,8.30
2023-02-23T00:49:21.072Z,8.30
2023-02-23T00:51:49.092Z,8.30
2023-02-23T00:54:18.378Z,8.30
2023-02-23T00:56:48.459Z,8.30
2023-02-23T00:59:16.810Z,8.30
2023-02-23T01:01:45.501Z,8.20
2023-02-23T01:04:14.399Z,8.20
2023-02-23T01:06:43.074Z,8.20
2023-02-23T01:09:13.803Z,8.10
2023-02-23T01:11:42.365Z,8.10
2023-02-23T01:14:12.440Z,8.10
2023-02-23T01:16:40.387Z,8.10
2023-02-23T01:19:08.812Z,8.10
2023-02-23T01:21:39.162Z,8.10
2023-02-23T01:24:07.871Z,8.20
2023-02-23T01:26:39.073Z,8.10
2023-02-23T01:29:09.336Z,8.10
2023-02-23T01:31:43.314Z,8.10
2023-02-23T01:34:12.463Z,8.00
2023-02-23T01:36:42.548Z,8.00
2023-02-23T01:39:13.179Z,8.00
2023-02-23T01:41:43.273Z,8.00
2023-02-23T01:44:44.727Z,8.00
2023-02-23T01:47:17.153Z,8.00
2023-02-23T01:49:45.372Z,8.00
2023-02-23T01:52:17.207Z,8.10
2023-02-23T01:54:50.483Z,8.20
2023-02-23T01:57:21.301Z,8.30
2023-02-23T01:59:50.927Z,8.30
2023-02-23T02:02:23.508Z,8.40
2023-02-23T02:04:52.200Z,8.50
2023-02-23T02:07:24.560Z,8.50
2023-02-23T02:10:23.616Z,8.50
2023-02-23T02:12:56.467Z,8.60
2023-02-23T02:15:32.454Z,8.50
2023-02-23T02:18:18.516Z,8.50
2023-02-23T02:21:17.995Z,8.60
2023-02-23T02:24:08.510Z,8.60
2023-02-23T02:26:46.107Z,8.60
2023-02-23T02:29:47.907Z,8.60
2023-02-23T02:32:47.340Z,8.60
2023-02-23T02:35:49.805Z,8.60
2023-02-23T02:38:29.865Z,8.60
2023-02-23T02:41:05.593Z,8.60
2023-02-23T02:43:42.917Z,8.60
2023-02-23T02:46:17.580Z,8.60
2023-02-23T02:48:51.484Z,8.60
2023-02-23T02:51:25.318Z,8.50
2023-02-23T02:54:06.635Z,8.50
2023-02-23T02:56:40.708Z,8.50
2023-02-23T02:59:28.618Z,8.50
2023-02-23T03:02:14.514Z,8.50
2023-02-23T03:05:00.399Z,8.50
2023-02-23T03:07:52.544Z,8.50
2023-02-23T03:10:48.660Z,8.40
2023-02-23T03:13:43.116Z,8.40
2023-02-23T03:16:41.037Z,8.40
2023-02-23T03:19:33.893Z,8.40
2023-02-23T03:22:26.308Z,8.40
2023-02-23T03:25:16.930Z,8.40
2023-02-23T03:28:08.183Z,8.30
2023-02-23T03:31:04.851Z,8.20
2023-02-23T03:33:57.550Z,8.20
2023-02-23T03:36:46.105Z,8.10
2023-02-23T03:39:40.567Z,8.10
2023-02-23T03:42:30.095Z,8.00
2023-02-23T03:45:20.335Z,8.00
2023-02-23T03:48:06.951Z,8.00
2023-02-23T03:50:55.976Z,7.90
2023-02-23T03:53:48.463Z,7.90
2023-02-23T03:56:35.284Z,8.00
2023-02-23T03:59:22.283Z,8.00
2023-02-23T04:02:12.215Z,8.00
2023-02-23T04:04:59.151Z,8.00
2023-02-23T04:07:44.802Z,8.00
2023-02-23T04:10:30.317Z,8.00
2023-02-23T04:13:14.826Z,7.90
2023-02-23T04:15:48.091Z,7.90
2023-02-23T04:18:21.809Z,7.90
2023-02-23T04:20:49.833Z,7.90
2023-02-23T04:23:18.211Z,7.90
2023-02-23T04:25:47.640Z,7.90
2023-02-23T04:28:15.896Z,7.80
2023-02-23T04:30:44.047Z,7.80
2023-02-23T04:33:12.154Z,7.80
2023-02-23T04:35:41.654Z,7.80
2023-02-23T04:38:09.885Z,7.70
2023-02-23T04:40:37.947Z,7.70
2023-02-23T04:43:05.950Z,7.70
2023-02-23T04:45:34.336Z,7.70
2023-02-23T04:48:02.329Z,7.60
2023-02-23T04:50:32.480Z,7.60
2023-02-23T04:53:02.105Z,7.70
2023-02-23T04:55:30.097Z,7.70
2023-02-23T04:58:00.308Z,7.70
2023-02-23T05:00:29.488Z,7.70
2023-02-23T05:02:57.751Z,7.70
2023-02-23T05:05:25.714Z,7.70
2023-02-23T05:07:54.972Z,7.70
2023-02-23T05:10:24.511Z,7.70
2023-02-23T05:12:52.659Z,7.70
2023-02-23T05:15:21.052Z,7.70
2023-02-23T05:17:49.091Z,7.70
2023-02-23T05:20:17.061Z,7.70
2023-02-23T05:22:45.285Z,7.80
2023-02-23T05:25:13.644Z,7.80
2023-02-23T05:27:43.058Z,7.80
2023-02-23T05:30:12.171Z,7.80
2023-02-23T05:32:40.304Z,7.80
2023-02-23T05:35:08.978Z,7.80
2023-02-23T05:37:37.086Z,7.80
2023-02-23T05:40:05.758Z,7.80
2023-02-23T05:42:33.880Z,7.70
2023-02-23T05:45:04.818Z,7.80
2023-02-23T05:47:33.265Z,7.80
2023-02-23T05:50:01.333Z,7.80
2023-02-23T05:52:29.270Z,7.80
2023-02-23T05:54:57.244Z,7.70
2023-02-23T05:57:25.517Z,7.80
2023-02-23T05:59:54.980Z,7.80
2023-02-23T06:02:24.270Z,7.80
2023-02-23T06:04:52.219Z,7.80
2023-02-23T06:07:20.191Z,7.80
2023-02-23T06:09:48.078Z,7.80
2023-02-23T06:12:34.638Z,7.80
2023-02-23T06:15:21.538Z,7.70
2023-02-23T06:17:51.064Z,7.80
2023-02-23T06:20:19.173Z,7.80
2023-02-23T06:22:48.082Z,7.80
2023-02-23T06:25:16.175Z,7.80
2023-02-23T06:27:45.513Z,7.80
2023-02-23T06:30:14.506Z,7.80
2023-02-23T06:32:42.476Z,7.80
2023-02-23T06:35:12.071Z,7.80
2023-02-23T06:37:40.166Z,7.90
2023-02-23T06:40:09.405Z,7.80
2023-02-23T06:42:37.309Z,7.80
2023-02-23T06:45:06.324Z,7.90
2023-02-23T06:47:53.806Z,7.90
2023-02-23T06:50:42.202Z,7.90
2023-02-23T06:53:31.338Z,7.90
2023-02-23T06:55:59.523Z,7.90
2023-02-23T06:58:28.399Z,7.90
2023-02-23T07:00:58.566Z,7.90
2023-02-23T07:03:27.224Z,7.90
2023-02-23T07:05:56.697Z,7.90
2023-02-23T07:08:24.667Z,7.90
2023-02-23T07:10:52.627Z,7.90
2023-02-23T07:13:21.934Z,7.90
2023-02-23T07:15:50.820Z,8.00
2023-02-23T07:18:18.986Z,8.00
2023-02-23T07:21:12.238Z,8.00
2023-02-23T07:23:40.261Z,8.00
2023-02-23T07:26:09.523Z,8.10
2023-02-23T07:28:38.252Z,8.10
2023-02-23T07:31:06.514Z,8.10
2023-02-23T07:33:34.652Z,8.10
2023-02-23T07:36:02.993Z,8.10
2023-02-23T07:38:32.672Z,8.20
2023-02-23T07:41:00.832Z,8.20
2023-02-23T07:43:28.859Z,8.20
2023-02-23T07:46:01.004Z,8.30
2023-02-23T07:48:29.322Z,8.30
2023-02-23T07:50:57.289Z,8.30
2023-02-23T07:53:25.375Z,8.40
2023-02-23T07:55:58.965Z,8.40
2023-02-23T07:58:27.039Z,8.40
2023-02-23T08:00:55.676Z,8.40
2023-02-23T08:03:23.672Z,8.40
2023-02-23T08:05:51.662Z,8.40
2023-02-23T08:08:19.764Z,8.40
2023-02-23T08:10:50.022Z,8.50
2023-02-23T08:13:19.382Z,8.50
2023-02-23T08:15:47.592Z,8.50
2023-02-23T08:18:15.624Z,8.60
2023-02-23T08:20:43.597Z,8.60
2023-02-23T08:23:11.576Z,8.70
2023-02-23T08:25:39.884Z,8.80
2023-02-23T08:28:07.824Z,8.80
2023-02-23T08:30:37.333Z,8.90
2023-02-23T08:33:07.473Z,8.90
2023-02-23T08:35:35.549Z,9.00
2023-02-23T08:38:03.467Z,9.00
2023-02-23T08:40:31.458Z,9.10
2023-02-23T08:42:59.361Z,9.10
2023-02-23T08:45:29.314Z,9.10
2023-02-23T08:47:58.666Z,9.20
2023-02-23T08:50:27.567Z,9.30
2023-02-23T08:52:55.786Z,9.30
2023-02-23T08:55:23.953Z,9.30
2023-02-23T08:57:52.014Z,9.30
2023-02-23T09:00:21.134Z,9.30
2023-02-23T09:02:49.142Z,9.30
2023-02-23T09:05:18.609Z,9.30
2023-02-23T09:07:49.074Z,9.30
2023-02-23T09:10:20.933Z,9.30
2023-02-23T09:12:48.933Z,9.30
2023-02-23T09:15:16.937Z,9.30
2023-02-23T09:17:45.128Z,9.30
2023-02-23T09:20:15.699Z,9.30
2023-02-23T09:22:48.652Z,9.30
2023-02-23T09:25:18.234Z,9.30
2023-02-23T09:27:46.213Z,9.40
2023-02-23T09:30:17.892Z,9.40
2023-02-23T09:32:46.457Z,9.40
2023-02-23T09:35:17.671Z,9.50
2023-02-23T09:37:48.975Z,9.60
2023-02-23T09:40:19.605Z,9.70
2023-02-23T09:42:55.039Z,9.70
2023-02-23T09:45:34.441Z,9.80
2023-02-23T09:48:11.589Z,9.80
2023-02-23T09:50:41.152Z,9.90
2023-02-23T09:53:33.846Z,9.90
2023-02-23T09:56:05.915Z,10.00
2023-02-23T09:58:35.774Z,9.90
2023-02-23T10:01:23.787Z,10.00
2023-02-23T10:03:57.725Z,10.00
2023-02-23T10:06:25.768Z,10.00
2023-02-23T10:09:06.682Z,9.90
2023-02-23T10:11:42.083Z,9.90
2023-02-23T10:14:24.086Z,9.80
2023-02-23T10:17:04.694Z,9.80
2023-02-23T10:19:38.161Z,9.80
2023-02-23T10:22:10.100Z,9.80
2023-02-23T10:24:43.675Z,9.80
2023-02-23T10:27:17.839Z,9.80
2023-02-23T10:29:50.206Z,9.90
2023-02-23T10:32:22.968Z,9.80
2023-02-23T10:34:56.571Z,9.80
2023-02-23T10:37:26.080Z,9.80
2023-02-23T10:39:55.609Z,9.80
2023-02-23T10:42:28.871Z,9.80
2023-02-23T10:44:57.902Z,9.80
2023-02-23T10:47:29.480Z,9.80
2023-02-23T10:49:58.566Z,9.70
2023-02-23T10:52:32.876Z,9.70
2023-02-23T10:55:06.175Z,9.70
2023-02-23T10:57:39.936Z,9.70
2023-02-23T11:00:32.728Z,9.70
2023-02-23T11:03:03.126Z,9.70
2023-02-23T11:06:05.301Z,9.80
2023-02-23T11:08:34.746Z,9.80
2023-02-23T11:11:08.435Z,9.80
2023-02-23T11:13:42.433Z,9.80
2023-02-23T11:16:13.885Z,9.80
2023-02-23T11:18:43.939Z,9.80
2023-02-23T11:21:14.400Z,9.80
2023-02-23T11:23:45.164Z,9.80
2023-02-23T11:26:38.458Z,9.80
2023-02-23T11:29:19.336Z,9.80
2023-02-23T11:31:51.652Z,9.80
2023-02-23T11:34:32.371Z,9.80
2023-02-23T11:37:04.609Z,9.90
2023-02-23T11:39:33.175Z,9.90
2023-02-23T11:42:27.713Z,10.00
2023-02-23T11:45:04.827Z,10.10
2023-02-23T11:47:48.117Z,10.10
2023-02-23T11:50:29.673Z,10.20
2023-02-23T11:53:04.568Z,10.20
2023-02-23T11:55:35.955Z,10.30
2023-02-23T11:58:17.294Z,10.30
2023-02-23T12:00:45.265Z,10.40
2023-02-23T12:03:21.970Z,10.40
2023-02-23T12:05:53.222Z,10.50
2023-02-23T12:08:31.419Z,10.50
2023-02-23T12:11:03.612Z,10.60
2023-02-23T12:13:38.817Z,10.60
2023-02-23T12:16:12.043Z,10.60
2023-02-23T12:18:47.033Z,10.60
2023-02-23T12:21:27.165Z,10.70
2023-02-23T12:24:04.268Z,10.80
2023-02-23T12:26:37.112Z,10.80
2023-02-23T12:29:18.923Z,10.90
2023-02-23T12:31:50.704Z,11.00
2023-02-23T12:34:25.697Z,11.10
2023-02-23T12:36:59.206Z,11.20
2023-02-23T12:39:32.007Z,11.30
2023-02-23T12:42:11.826Z,11.30
2023-02-23T12:44:48.049Z,11.30
2023-02-23T12:47:24.615Z,11.30
2023-02-23T12:49:57.431Z,11.30
2023-02-23T12:52:30.170Z,11.30
2023-02-23T12:54:58.029Z,11.40
2023-02-23T12:57:34.521Z,11.40
2023-02-23T13:00:31.227Z,11.40
2023-02-23T13:03:44.218Z,11.50
2023-02-23T13:06:17.028Z,11.70
2023-02-23T13:09:01.362Z,11.90
2023-02-23T13:11:52.326Z,12.00
2023-02-23T13:14:30.248Z,12.10
2023-02-23T13:17:04.246Z,12.10
2023-02-23T13:19:38.596Z,12.30
2023-02-23T13:22:27.685Z,12.40
2023-02-23T13:24:59.475Z,12.30
2023-02-23T13:27:31.461Z,12.30
2023-02-23T13:29:59.539Z,12.40
2023-02-23T13:32:33.459Z,12.40
2023-02-23T13:35:02.536Z,12.40
2023-02-23T13:37:34.910Z,12.30
2023-02-23T13:40:21.015Z,12.30
2023-02-23T13:43:00.164Z,12.20
2023-02-23T13:45:39.739Z,12.20
2023-02-23T13:48:25.564Z,12.20
2023-02-23T13:51:00.192Z,12.10
2023-02-23T13:53:40.894Z,12.10
2023-02-23T13:56:11.205Z,12.10
2023-02-23T13:58:46.817Z,12.00
2023-02-23T14:01:18.052Z,11.90
2023-02-23T14:03:54.507Z,11.90
2023-02-23T14:06:25.842Z,11.80
2023-02-23T14:09:00.756Z,11.80
2023-02-23T14:11:43.968Z,11.80
2023-02-23T14:14:16.968Z,11.80
2023-02-23T14:16:47.842Z,11.70
2023-02-23T14:19:33.208Z,11.70
2023-02-23T14:22:06.237Z,11.70
2023-02-23T14:24:34.395Z,11.70
2023-02-23T14:27:41.507Z,11.70
2023-02-23T14:30:25.283Z,11.70
2023-02-23T14:32:54.674Z,11.70
2023-02-23T14:35:45.109Z,11.80
2023-02-23T14:38:24.895Z,11.80
2023-02-23T14:40:55.607Z,11.90
2023-02-23T14:43:45.322Z,11.90
2023-02-23T14:46:21.420Z,12.00
2023-02-23T14:49:03.208Z,11.90
2023-02-23T14:51:47.922Z,11.80
2023-02-23T14:54:25.651Z,11.80
2023-02-23T14:56:56.659Z,11.70
2023-02-23T14:59:27.918Z,11.70
2023-02-23T15:02:00.319Z,11.60
2023-02-23T15:04:29.946Z,11.70
2023-02-23T15:07:01.612Z,11.60
2023-02-23T15:09:34.309Z,11.60
2023-02-23T15:12:13.928Z,11.50
2023-02-23T15:14:42.611Z,11.50
2023-02-23T21:31:40.601Z,9.30
2023-02-23T21:34:10.986Z,9.30
2023-02-23T21:36:39.489Z,9.30
2023-02-23T21:39:08.110Z,9.30
2023-02-23T21:41:37.714Z,9.30
2023-02-23T21:44:06.538Z,9.30
2023-02-23T21:46:35.105Z,9.20
2023-02-23T21:49:07.255Z,9.20
2023-02-23T21:51:37.132Z,9.20
2023-02-23T21:54:06.611Z,9.20
2023-02-23T21:56:35.048Z,9.20
2023-02-23T21:59:04.572Z,9.10
2023-02-23T22:01:35.504Z,9.10
2023-02-23T22:04:04.968Z,9.10
2023-02-23T22:06:38.375Z,9.10
2023-02-23T22:09:11.025Z,9.00
2023-02-23T22:11:39.757Z,9.00
2023-02-23T22:14:09.114Z,9.00
2023-02-23T22:16:38.620Z,9.00
2023-02-23T22:19:10.141Z,8.90
2023-02-23T22:21:42.725Z,8.90
2023-02-23T22:24:11.803Z,9.00
2023-02-23T22:26:41.781Z,8.90
2023-02-23T22:29:11.223Z,8.90
2023-02-23T22:31:39.482Z,8.90
2023-02-23T22:34:07.601Z,8.90
2023-02-23T22:36:35.872Z,8.90
2023-02-23T22:39:07.380Z,8.90
2023-02-23T22:41:42.125Z,8.80
2023-02-23T22:44:13.235Z,8.80
2023-02-23T22:46:42.303Z,8.80
2023-02-23T22:49:11.812Z,8.80
2023-02-23T22:51:40.278Z,8.80
2023-02-23T22:54:09.987Z,8.80
2023-02-23T22:56:38.281Z,8.80
2023-02-23T22:59:08.596Z,8.80
2023-02-23T23:01:38.451Z,8.70
2023-02-23T23:04:10.461Z,8.70
2023-02-23T23:06:40.678Z,8.70
2023-02-23T23:09:11.804Z,8.70
2023-02-23T23:11:42.216Z,8.70
2023-02-23T23:14:11.133Z,8.70
2023-02-23T23:16:47.525Z,8.70
2023-02-23T23:19:17.447Z,8.70
2023-02-23T23:21:46.369Z,8.70
2023-02-23T23:24:16.253Z,8.60
2023-02-23T23:26:45.205Z,8.60
2023-02-23T23:29:15.591Z,8.60
2023-02-23T23:31:46.457Z,8.60
2023-02-23T23:34:16.435Z,8.60
2023-02-23T23:36:49.159Z,8.50
2023-02-23T23:39:20.640Z,8.50
2023-02-23T23:41:49.825Z,8.50
2023-02-23T23:44:19.692Z,8.50
2023-02-23T23:46:50.564Z,8.40
2023-02-23T23:49:20.410Z,8.20
2023-02-23T23:51:51.039Z,7.90
2023-02-23T23:54:23.373Z,7.80
2023-02-23T23:56:52.308Z,7.40
2023-02-23T23:59:22.716Z,7.10
